Nearby METAR Reports

 

KPAO - Palo Alto, California, USA
Distance from KPAO: NNW 0nm, 0mi
Updated: Fri, 15-Jan-2021 8:47pm PST
NOT Current
Sky Clear
Sky Clear
 Wind from varies
Wind: varies 5 mph , 7 km/h
Temperature: 54°F , 12°C
Dew Point: 46°F , 8°C
Humidity: 77%
Barometer: 30.24 inHg , 1024 hPa
Clouds: Sky Clear
Visibility: 10 miles , 16 km
2021/01/16 04:47 KPAO 160447Z VRB04KT 10SM SKC 12/08 A3024 RMK LAST
KSQL - San Carlos Airpo, California, USA
Distance from KPAO: WNW 7nm, 8mi
Updated: Sat, 16-Jan-2021 12:55am PST
Clear
Clear
 Wind from calm
Wind: Calm
Temperature: 54°F , 12°C
Dew Point: 46°F , 8°C
Humidity: 77%
Barometer: 30.24 inHg , 1024 hPa
Clouds: Clear
Visibility: 10 miles , 16 km
2021/01/16 08:55 KSQL 160855Z AUTO 00000KT 10SM CLR 12/08 A3024 RMK AO2
 
KSJC - San Jose, California, USA
Distance from KPAO: ESE 11nm, 13mi
Updated: Sat, 16-Jan-2021 12:53am PST
Clear
Clear
 Wind from calm
Wind: Calm
Temperature: 52°F , 11°C
Dew Point: 46°F , 8°C
Humidity: 82%
Barometer: 30.23 inHg , 1023.7 hPa
Clouds: Clear
Visibility: 9 miles , 14 km
2021/01/16 08:53 KSJC 160853Z AUTO 00000KT 9SM CLR 11/08 A3023 RMK AO2 SLP235 T01060078 55000
KHWD - Hayward, California, USA
Distance from KPAO: N 12nm, 14mi
Updated: Sat, 16-Jan-2021 12:54am PST
Clear
Clear
 Wind from calm
Wind: Calm
Temperature: 54°F , 12°C
Dew Point: 43°F , 6°C
Humidity: 67%
Barometer: 30.22 inHg , 1023.4 hPa
Clouds: Clear
Visibility: 10 miles , 16 km
2021/01/16 08:54 KHWD 160854Z AUTO 00000KT 10SM CLR 12/06 A3022 RMK AO2 SLP244 T01170061 58000
 
KSFO - San Francisco, California, USA
Distance from KPAO: NW 16nm, 18mi
Updated: Sat, 16-Jan-2021 12:56am PST
Clear
Clear
 Wind from calm
Wind: Calm
Temperature: 54°F , 12°C
Dew Point: 48°F , 9°C
Humidity: 82%
Barometer: 30.22 inHg , 1023.4 hPa
Clouds: Clear
Visibility: 10 miles , 16 km
2021/01/16 08:56 KSFO 160856Z 00000KT 10SM CLR 12/09 A3022 RMK AO2 SLP234 T01220089 50001
KRHV - San Jose/Reid, California, USA
Distance from KPAO: ESE 16nm, 18mi
Updated: Fri, 15-Jan-2021 9:55pm PST
NOT Current
Scattered
Scattered
 Wind from calm
Wind: Calm
Temperature: 54°F , 12°C
Dew Point: 46°F , 8°C
Humidity: 77%
Barometer: 30.24 inHg , 1024 hPa
Clouds: Scattered
Visibility: 10 miles , 16 km
Cloud details: Scattered 10000 ft
2021/01/16 05:55 KRHV 160555Z 00000KT 10SM SCT100 12/08 A3024 RMK LAST
 
KOAK - Oakland, California, USA
Distance from KPAO: NNW 16nm, 18mi
Updated: Sat, 16-Jan-2021 12:53am PST
Few Clouds
Few Clouds
 Wind from calm
Wind: Calm
Temperature: 55°F , 13°C
Dew Point: 48°F , 9°C
Humidity: 77%
Barometer: 30.23 inHg , 1023.7 hPa
Clouds: Few Clouds
Visibility: 10 miles , 16 km
Cloud details: Few Clouds 20000 ft
2021/01/16 08:53 KOAK 160853Z 00000KT 10SM FEW200 13/09 A3023 RMK AO2 SLP237 T01280089 58001
KHAF - Half Moon Bay, California, USA
Distance from KPAO: W 19nm, 22mi
Updated: Sat, 16-Jan-2021 12:55am PST
Haze, Clear
Haze, Clear
 Wind from N
Wind: N 3 mph , 6 km/h
Temperature: 52°F , 11°C
Dew Point: 46°F , 8°C
Humidity: 82%
Barometer: 30.22 inHg , 1023.4 hPa
Summary: Haze
Clouds: Clear
Visibility: 5 miles , 8 km
2021/01/16 08:55 KHAF 160855Z AUTO 35003KT 5SM HZ CLR 11/08 A3022 RMK AO2
 
KLVK - Livermore, California, USA
Distance from KPAO: NE 20nm, 23mi
Updated: Sat, 16-Jan-2021 12:53am PST
Clear
Clear
 Wind from calm
Wind: Calm
Temperature: 46°F , 8°C
Dew Point: 41°F , 5°C
Humidity: 82%
Barometer: 30.24 inHg , 1024 hPa
Clouds: Clear
Visibility: 10 miles , 16 km
2021/01/16 08:53 KLVK 160853Z AUTO 00000KT 10SM CLR 08/05 A3024 RMK AO2 SLP236 T00780050 53000
KC83 - Byron, California, USA
Distance from KPAO: NE 32nm, 40mi
Updated: Sat, 16-Jan-2021 12:55am PST
Clear
Clear
 Wind from W
Wind: W 7 mph , 11 km/h
Temperature: 54°F , 12°C
Dew Point: 45°F , 7°C
Humidity: 72%
Barometer: 30.23 inHg , 1023.7 hPa
Clouds: Clear
Visibility: 10 miles , 16 km
2021/01/16 08:55 KC83 160855Z AUTO 28006KT 10SM CLR 12/07 A3023 RMK AO2
 
KCCR - Concord, California, USA
Distance from KPAO: N 33nm, 37mi
Updated: Sat, 16-Jan-2021 12:53am PST
Clear
Clear
 Wind from SE
Wind: SE 5 mph , 7 km/h
Temperature: 50°F , 10°C
Wind Chill: 48°F , 9°C
Dew Point: 45°F , 7°C
Humidity: 82%
Barometer: 30.23 inHg , 1023.7 hPa
Clouds: Clear
Visibility: 10 miles , 16 km
2021/01/16 08:53 KCCR 160853Z AUTO 14004KT 10SM CLR 10/07 A3023 RMK AO2 SLP223 T01000072 58005
KWVI - Watsonville, California, USA
Distance from KPAO: SSE 35nm, 40mi
Updated: Sat, 16-Jan-2021 12:53am PST
Clear
Clear
 Wind from NW
Wind: NW 3 mph , 6 km/h
Temperature: 52°F , 11°C
Dew Point: 45°F , 7°C
Humidity: 77%
Barometer: 30.18 inHg , 1022 hPa
Clouds: Clear
Visibility: 10 miles , 16 km
2021/01/16 08:53 KWVI 160853Z AUTO 32003KT 10SM CLR 11/07 A3018 RMK AO2 SLP220 T01110067 58008
 
KAPC - Napa, California, USA
Distance from KPAO: N 46nm, 53mi
Updated: Sat, 16-Jan-2021 12:54am PST
Clear
Clear
 Wind from calm
Wind: Calm
Temperature: 52°F , 11°C
Dew Point: 46°F , 8°C
Humidity: 82%
Barometer: 30.23 inHg , 1023.7 hPa
Clouds: Clear
Visibility: 8 miles , 13 km
2021/01/16 08:54 KAPC 160854Z AUTO 00000KT 8SM CLR 11/08 A3023 RMK AO2 SLP227 T01060083 58005
KDVO - Novato/Gnoss Fld, California, USA
Distance from KPAO: NNW 46nm, 53mi
Updated: Sat, 16-Jan-2021 12:55am PST
Clear
Clear
 Wind from NNW
Wind: NNW 5 mph , 7 km/h
Temperature: 48°F , 9°C
Wind Chill: 46°F , 8°C
Dew Point: 48°F , 9°C
Humidity: 100%
Barometer: 30.23 inHg , 1023.7 hPa
Clouds: Clear
Visibility: 10 miles , 16 km
2021/01/16 08:55 KDVO 160855Z AUTO 34004KT 10SM CLR 09/09 A3023 RMK AO2
 
KCVH - Hollister Muni, California, USA
Distance from KPAO: SE 48nm, 55mi
Updated: Sat, 16-Jan-2021 12:55am PST
Clear
Clear
 Wind from calm
Wind: Calm
Temperature: 46°F , 8°C
Dew Point: 39°F , 4°C
Humidity: 76%
Barometer: 30.21 inHg , 1023 hPa
Clouds: Clear
Visibility: 10 miles , 16 km
2021/01/16 08:55 KCVH 160855Z AUTO 00000KT 10SM CLR 08/04 A3021 RMK A01
KSUU - Travis Afb/Fairf, California, USA
Distance from KPAO: ENE 49nm, 56mi
Updated: Sat, 16-Jan-2021 12:58am PST
Broken
Broken
 Wind from NW
Wind: NW 5 mph , 7 km/h
Temperature: 52°F , 11°C
Dew Point: 46°F , 8°C
Humidity: 82%
Barometer: 30.22 inHg , 1023.4 hPa
Clouds: Broken
Visibility: 10 miles , 16 km
Cloud details: Broken 18000 ft
2021/01/16 08:58 KSUU 160858Z AUTO 31004KT 10SM BKN180 11/08 A3022 RMK AO2 SLP240 T01080077 57006 $
 
KSCK - Stockton, California, USA
Distance from KPAO: ENE 49nm, 56mi
Updated: Sat, 16-Jan-2021 12:55am PST
Clear
Clear
 Wind from WNW
Wind: WNW 10 mph , 17 km/h
Temperature: 54°F , 12°C
Dew Point: 48°F , 9°C
Humidity: 82%
Barometer: 30.21 inHg , 1023 hPa
Clouds: Clear
Visibility: 7 miles , 11 km
2021/01/16 08:55 KSCK 160855Z AUTO 29009KT 7SM CLR 12/09 A3021 RMK AO2 SLP228 T01220089 57006
KO69 - Petaluma, California, USA
Distance from KPAO: W 53nm, 61mi
Updated: Wed, 06-Jan-2021 12:45am PST
NOT Current
Clear
Clear
 Wind from calm
Wind: Calm
Temperature: 41°F , 5°C
Dew Point: 41°F , 5°C
Humidity: 100%
Barometer: 30.24 inHg , 1024 hPa
Clouds: Clear
Visibility: 9 miles , 14 km
2021/01/06 08:45 KO69 060845Z AUTO 00000KT 9SM CLR 05/05 A3024 RMK A01
 
KSNS - Salinas, California, USA
Distance from KPAO: SSE 54nm, 62mi
Updated: Sat, 16-Jan-2021 12:53am PST
Clear
Clear
 Wind from NNE
Wind: NNE 5 mph , 7 km/h
Temperature: 52°F , 11°C
Dew Point: 43°F , 6°C
Humidity: 72%
Barometer: 30.17 inHg , 1021.7 hPa
Clouds: Clear
Visibility: 10 miles , 16 km
2021/01/16 08:53 KSNS 160853Z 03004KT 10SM CLR 11/06 A3017 RMK AO2 SLP224 T01060061 58008
KMRY - Monterey, California, USA
Distance from KPAO: SSE 54nm, 62mi
Updated: Sat, 16-Jan-2021 12:54am PST
Clear
Clear
 Wind from E
Wind: E 5 mph , 7 km/h
Temperature: 59°F , 15°C
Dew Point: 43°F , 6°C
Humidity: 55%
Barometer: 30.17 inHg , 1021.7 hPa
Clouds: Clear
Visibility: 10 miles , 16 km
2021/01/16 08:54 KMRY 160854Z AUTO 10004KT 10SM CLR 15/06 A3017 RMK AO2 SLP227 T01500061 58009
 
KVCB - Vacaville, California, USA
Distance from KPAO: NE 55nm, 63mi
Updated: Fri, 15-Jan-2021 11:53pm PST
NOT Current
Clear
Clear
 Wind from WSW
Wind: WSW 5 mph , 7 km/h
Temperature: 52°F , 11°C
Dew Point: 45°F , 7°C
Humidity: 77%
Barometer: 30.24 inHg , 1024 hPa
Clouds: Clear
Visibility: 10 miles , 16 km
2021/01/16 07:53 KVCB 160753Z AUTO 24004KT 10SM CLR 11/07 A3024 RMK AO2 SLP239 T01060072 401890022 $
KMOD - Modesto, California, USA
Distance from KPAO: E 56nm, 64mi
Updated: Sat, 16-Jan-2021 12:53am PST
Clear
Clear
 Wind from WNW
Wind: WNW 9 mph , 15 km/h
Temperature: 52°F , 11°C
Dew Point: 46°F , 8°C
Humidity: 82%
Barometer: 30.21 inHg , 1023 hPa
Clouds: Clear
Visibility: 7 miles , 11 km
2021/01/16 08:53 KMOD 160853Z AUTO 30008KT 7SM CLR 11/08 A3021 RMK AO2 SLP228 T01110083 57002
 
KEDU - Davis, California, USA
Distance from KPAO: NE 66nm, 76mi
Updated: Sat, 16-Jan-2021 12:55am PST
Clear
Clear
 Wind from calm
Wind: Calm
Temperature: 55°F , 13°C
Dew Point: 45°F , 7°C
Humidity: 67%
Barometer: 30.22 inHg , 1023.4 hPa
Clouds: Clear
Visibility: 10 miles , 16 km
2021/01/16 08:55 KEDU 160855Z AUTO 00000KT 10SM CLR 13/07 A3022 RMK AO1
KSAC - Sacramento, California, USA
Distance from KPAO: NE 70nm, 81mi
Updated: Sat, 16-Jan-2021 12:53am PST
Clear
Clear
 Wind from NW
Wind: NW 6 mph , 9 km/h
Temperature: 52°F , 11°C
Dew Point: 46°F , 8°C
Humidity: 82%
Barometer: 30.22 inHg , 1023.4 hPa
Clouds: Clear
Visibility: 7 miles , 11 km
2021/01/16 08:53 KSAC 160853Z AUTO 31005KT 7SM CLR 11/08 A3022 RMK AO2 SLP231 T01060083 58006
 
KSTS - Santa Rosa, California, USA
Distance from KPAO: NW 71nm, 82mi
Updated: Sat, 16-Jan-2021 1:02am PST
Mist, Clear
Mist, Clear
 Wind from calm
Wind: Calm
Temperature: 52°F , 11°C
Dew Point: 48°F , 9°C
Humidity: 88%
Barometer: 30.23 inHg , 1023.7 hPa
Summary: Mist
Clouds: Clear
Visibility: 2 1/2 miles , 4 km
2021/01/16 09:02 KSTS 160902Z AUTO 00000KT 2 1/2SM BR CLR 11/09 A3023 RMK AO2 T01060094
KMHR - Mather Field, California, USA
Distance from KPAO: ENE 76nm, 88mi
Updated: Fri, 15-Jan-2021 11:30pm PST
NOT Current
Mist, Broken
Mist, Broken
 Wind from NNW
Wind: NNW 3 mph , 6 km/h
Temperature: 52°F , 11°C
Dew Point: 50°F , 10°C
Humidity: 94%
Barometer: 30.21 inHg , 1023 hPa
Summary: Mist
Clouds: Broken
Visibility: 6 miles , 10 km
Cloud details: Broken 25000 ft
2021/01/16 07:30 KMHR 160730Z 34003KT 6SM BR BKN250 11/10 A3021
 
KSMF - Sacramento/Metro, California, USA
Distance from KPAO: NE 78nm, 90mi
Updated: Sat, 16-Jan-2021 12:53am PST
Mist, Few clouds
Mist, Few clouds
 Wind from NW
Wind: NW 3 mph , 6 km/h
Temperature: 48°F , 9°C
Dew Point: 46°F , 8°C
Humidity: 94%
Barometer: 30.21 inHg , 1023 hPa
Summary: Mist
Clouds: Few Clouds
Visibility: 4 miles , 6 km
Cloud details: Few Clouds 14000 ft
Few Clouds 20000 ft
2021/01/16 08:53 KSMF 160853Z 31003KT 4SM BR FEW140 FEW200 09/08 A3021 RMK AO2 SLP228 T00890078 58007
KMCC - Mcclellan Afb, California, USA
Distance from KPAO: NE 80nm, 92mi
Updated: Sat, 16-Jan-2021 12:55am PST
Mist, Clear
Mist, Clear
 Wind from calm
Wind: Calm
Temperature: 48°F , 9°C
Dew Point: 48°F , 9°C
Humidity: 100%
Barometer: 30.21 inHg , 1023 hPa
Summary: Mist
Clouds: Clear
Visibility: 1 1/2 miles , 2.4 km
2021/01/16 08:55 KMCC 160855Z AUTO 00000KT 1 1/2SM BR CLR 09/09 A3021 RMK AO2
 
KNKX - Miramar MCAS (Joe Foss Field) Airport, California, USA
Distance from KPAO: SE 368nm, 423mi
Updated: Sat, 16-Jan-2021 12:55am PST
Clear
Clear
 Wind from ENE
Wind: ENE 10 mph , 17 km/h
Temperature: 59°F , 15°C
Dew Point: 21°F , -6°C
Humidity: 23%
Barometer: 29.99 inHg , 1015.6 hPa
Clouds: Clear
Visibility: 10 miles , 16 km
2021/01/16 08:55 KNKX 160855Z 06009KT 10SM CLR 15/M06 A2999 RMK AO2 SLP148 T01501056 58014 $
KMYF - Montgomery-Gibbs Executive Airport, California, USA
Distance from KPAO: SE 371nm, 427mi
Updated: Sat, 16-Jan-2021 12:53am PST
Clear
Clear
 Wind from E
Wind: E 5 mph , 7 km/h
Temperature: 59°F , 15°C
Dew Point: 25°F , -4°C
Humidity: 27%
Barometer: 29.98 inHg , 1015.2 hPa
Clouds: Clear
Visibility: 10 miles , 16 km
2021/01/16 08:53 KMYF 160853Z AUTO 08004KT 10SM CLR 15/M04 A2998 RMK AO2 SLP149 T01501039 58017